Terminal Aerodrome Forecast
Issued by NWS

Home | Current Version | Previous Version | Text Only | Print | Product List | Glossary On
Versions: 1 2 3 4 5 6 7 8 9 10 11 12 13 14 15 16 17 18 19 20
000
FTAK31 PAJN 301100
TAFAKT
TAF
PAKT 301123Z 3012/3112 00000KT P6SM VCSH BKN008 OVC025
      TEMPO 3013/3016 4SM BR
     FM301600 VRB04KT 6SM BR VCSH SCT005 BKN025 OVC050
     FM302100 12004KT P6SM SCT025 BKN050 BKN100
     FM310300 31005KT P6SM BKN100
     FM310900 32003KT P6SM VCFG SCT005 SCT100
      AMD LTD TO CLD VIS AND WIND 3012/3015=

USA.gov is the U.S. government's official web portal to all federal, state and local government web resources and services.